sensor_id;sensor_type;location;lat;lon;timestamp;temperature;humidity
62339;DHT22;48368;53.406;6.214;2024-03-08T00:00:08;2.50;99.90
62339;DHT22;48368;53.406;6.214;2024-03-08T00:02:40;2.50;99.90
62339;DHT22;48368;53.406;6.214;2024-03-08T00:05:07;2.40;99.90
62339;DHT22;48368;53.406;6.214;2024-03-08T00:07:35;2.50;99.90
62339;DHT22;48368;53.406;6.214;2024-03-08T00:10:05;2.40;99.90
62339;DHT22;48368;53.406;6.214;2024-03-08T00:12:31;2.40;99.90
62339;DHT22;48368;53.406;6.214;2024-03-08T00:14:56;2.30;99.90
62339;DHT22;48368;53.406;6.214;2024-03-08T00:17:28;2.40;99.90
62339;DHT22;48368;53.406;6.214;2024-03-08T00:19:54;2.40;99.90
62339;DHT22;48368;53.406;6.214;2024-03-08T00:22:20;2.30;99.90
62339;DHT22;48368;53.406;6.214;2024-03-08T00:24:47;2.30;99.90
62339;DHT22;48368;53.406;6.214;2024-03-08T00:27:16;2.40;99.90
62339;DHT22;48368;53.406;6.214;2024-03-08T00:29:44;2.30;99.90
62339;DHT22;48368;53.406;6.214;2024-03-08T00:32:10;2.30;99.90
62339;DHT22;48368;53.406;6.214;2024-03-08T00:34:36;2.30;99.90
62339;DHT22;48368;53.406;6.214;2024-03-08T00:37:04;2.30;99.90
62339;DHT22;48368;53.406;6.214;2024-03-08T00:39:30;2.30;99.90
62339;DHT22;48368;53.406;6.214;2024-03-08T00:41:56;2.30;99.90
62339;DHT22;48368;53.406;6.214;2024-03-08T00:44:22;2.40;99.90
62339;DHT22;48368;53.406;6.214;2024-03-08T00:46:47;2.30;99.90
62339;DHT22;48368;53.406;6.214;2024-03-08T00:49:13;2.30;99.90
62339;DHT22;48368;53.406;6.214;2024-03-08T00:51:39;2.30;99.90
62339;DHT22;48368;53.406;6.214;2024-03-08T00:54:04;2.30;99.90
62339;DHT22;48368;53.406;6.214;2024-03-08T00:56:30;2.30;99.90
62339;DHT22;48368;53.406;6.214;2024-03-08T00:59:04;2.30;99.90
62339;DHT22;48368;53.406;6.214;2024-03-08T01:01:30;2.30;99.90
62339;DHT22;48368;53.406;6.214;2024-03-08T01:03:56;2.30;99.90
62339;DHT22;48368;53.406;6.214;2024-03-08T01:06:22;2.20;99.90
62339;DHT22;48368;53.406;6.214;2024-03-08T01:08:48;2.20;99.90
62339;DHT22;48368;53.406;6.214;2024-03-08T01:11:13;2.20;99.90
62339;DHT22;48368;53.406;6.214;2024-03-08T01:13:42;2.20;99.90
62339;DHT22;48368;53.406;6.214;2024-03-08T01:16:08;2.20;99.90
62339;DHT22;48368;53.406;6.214;2024-03-08T01:18:33;2.10;99.90
62339;DHT22;48368;53.406;6.214;2024-03-08T01:20:59;2.10;99.90
62339;DHT22;48368;53.406;6.214;2024-03-08T01:23:28;2.10;99.90
62339;DHT22;48368;53.406;6.214;2024-03-08T01:25:55;2.10;99.90
62339;DHT22;48368;53.406;6.214;2024-03-08T01:28:24;2.10;99.90
62339;DHT22;48368;53.406;6.214;2024-03-08T01:30:50;2.10;99.90
62339;DHT22;48368;53.406;6.214;2024-03-08T01:33:24;2.10;99.90
62339;DHT22;48368;53.406;6.214;2024-03-08T01:35:51;2.10;99.90
62339;DHT22;48368;53.406;6.214;2024-03-08T01:38:19;2.10;99.90
62339;DHT22;48368;53.406;6.214;2024-03-08T01:40:46;2.00;99.90
62339;DHT22;48368;53.406;6.214;2024-03-08T01:43:41;2.00;99.90
62339;DHT22;48368;53.406;6.214;2024-03-08T01:46:07;2.00;99.90
62339;DHT22;48368;53.406;6.214;2024-03-08T01:48:34;2.00;99.90
62339;DHT22;48368;53.406;6.214;2024-03-08T01:51:00;2.00;99.90
62339;DHT22;48368;53.406;6.214;2024-03-08T01:53:27;2.00;99.90
62339;DHT22;48368;53.406;6.214;2024-03-08T01:55:56;2.00;99.90
62339;DHT22;48368;53.406;6.214;2024-03-08T01:58:23;2.00;99.90
62339;DHT22;48368;53.406;6.214;2024-03-08T02:00:49;1.90;99.90
62339;DHT22;48368;53.406;6.214;2024-03-08T02:03:16;1.90;99.90
62339;DHT22;48368;53.406;6.214;2024-03-08T02:05:41;1.90;99.90
62339;DHT22;48368;53.406;6.214;2024-03-08T02:08:08;1.90;99.90
62339;DHT22;48368;53.406;6.214;2024-03-08T02:10:38;1.90;99.90
62339;DHT22;48368;53.406;6.214;2024-03-08T02:13:04;1.90;99.90
62339;DHT22;48368;53.406;6.214;2024-03-08T02:15:55;1.80;99.90
62339;DHT22;48368;53.406;6.214;2024-03-08T02:18:25;1.90;99.90
62339;DHT22;48368;53.406;6.214;2024-03-08T02:20:59;1.80;99.90
62339;DHT22;48368;53.406;6.214;2024-03-08T02:23:25;1.80;99.90
62339;DHT22;48368;53.406;6.214;2024-03-08T02:25:51;1.80;99.90
62339;DHT22;48368;53.406;6.214;2024-03-08T02:28:18;1.80;99.90
62339;DHT22;48368;53.406;6.214;2024-03-08T02:30:48;1.80;99.90
62339;DHT22;48368;53.406;6.214;2024-03-08T02:33:15;1.80;99.90
62339;DHT22;48368;53.406;6.214;2024-03-08T02:35:48;1.70;99.90
62339;DHT22;48368;53.406;6.214;2024-03-08T02:38:21;1.70;99.90
62339;DHT22;48368;53.406;6.214;2024-03-08T02:40:51;1.70;99.90
62339;DHT22;48368;53.406;6.214;2024-03-08T02:43:19;1.70;99.90
62339;DHT22;48368;53.406;6.214;2024-03-08T02:45:45;1.70;99.90
62339;DHT22;48368;53.406;6.214;2024-03-08T02:48:11;1.70;99.90
62339;DHT22;48368;53.406;6.214;2024-03-08T02:50:37;1.60;99.90
62339;DHT22;48368;53.406;6.214;2024-03-08T02:53:05;1.60;99.90
62339;DHT22;48368;53.406;6.214;2024-03-08T02:55:31;1.60;99.90
62339;DHT22;48368;53.406;6.214;2024-03-08T02:57:56;1.60;99.90
62339;DHT22;48368;53.406;6.214;2024-03-08T03:00:23;1.50;99.90
62339;DHT22;48368;53.406;6.214;2024-03-08T03:02:50;1.60;99.90
62339;DHT22;48368;53.406;6.214;2024-03-08T03:05:25;1.60;99.90
62339;DHT22;48368;53.406;6.214;2024-03-08T03:07:51;1.50;99.90
62339;DHT22;48368;53.406;6.214;2024-03-08T03:10:17;1.50;99.90
62339;DHT22;48368;53.406;6.214;2024-03-08T03:12:44;1.50;99.90
62339;DHT22;48368;53.406;6.214;2024-03-08T03:15:11;1.50;99.90
62339;DHT22;48368;53.406;6.214;2024-03-08T03:17:38;1.40;99.90
62339;DHT22;48368;53.406;6.214;2024-03-08T03:20:08;1.50;99.90
62339;DHT22;48368;53.406;6.214;2024-03-08T03:22:40;1.40;99.90
62339;DHT22;48368;53.406;6.214;2024-03-08T03:25:10;1.50;99.90
62339;DHT22;48368;53.406;6.214;2024-03-08T03:27:36;1.40;99.90
62339;DHT22;48368;53.406;6.214;2024-03-08T03:30:03;1.40;99.90
62339;DHT22;48368;53.406;6.214;2024-03-08T03:32:50;1.40;99.90
62339;DHT22;48368;53.406;6.214;2024-03-08T03:35:21;1.40;99.90
62339;DHT22;48368;53.406;6.214;2024-03-08T03:37:49;1.40;99.90
62339;DHT22;48368;53.406;6.214;2024-03-08T03:40:30;1.40;99.90
62339;DHT22;48368;53.406;6.214;2024-03-08T03:42:56;1.40;99.90
62339;DHT22;48368;53.406;6.214;2024-03-08T03:45:23;1.30;99.90
62339;DHT22;48368;53.406;6.214;2024-03-08T03:47:49;1.40;99.90
62339;DHT22;48368;53.406;6.214;2024-03-08T03:50:15;1.30;99.90
62339;DHT22;48368;53.406;6.214;2024-03-08T03:52:40;1.30;99.90
62339;DHT22;48368;53.406;6.214;2024-03-08T03:55:13;1.30;99.90
62339;DHT22;48368;53.406;6.214;2024-03-08T03:57:39;1.30;99.90
62339;DHT22;48368;53.406;6.214;2024-03-08T04:00:07;1.30;99.90
62339;DHT22;48368;53.406;6.214;2024-03-08T04:02:40;1.30;99.90
62339;DHT22;48368;53.406;6.214;2024-03-08T04:05:07;1.20;99.90
62339;DHT22;48368;53.406;6.214;2024-03-08T04:07:33;1.30;99.90
62339;DHT22;48368;53.406;6.214;2024-03-08T04:10:02;1.30;99.90
62339;DHT22;48368;53.406;6.214;2024-03-08T04:12:27;1.20;99.90
62339;DHT22;48368;53.406;6.214;2024-03-08T04:14:55;1.20;99.90
62339;DHT22;48368;53.406;6.214;2024-03-08T04:17:21;1.20;99.90
62339;DHT22;48368;53.406;6.214;2024-03-08T04:19:47;1.20;99.90
62339;DHT22;48368;53.406;6.214;2024-03-08T04:22:14;1.20;99.90
62339;DHT22;48368;53.406;6.214;2024-03-08T04:24:39;1.20;99.90
62339;DHT22;48368;53.406;6.214;2024-03-08T04:27:06;1.20;99.90
62339;DHT22;48368;53.406;6.214;2024-03-08T04:29:32;1.20;99.90
62339;DHT22;48368;53.406;6.214;2024-03-08T04:31:58;1.20;99.90
62339;DHT22;48368;53.406;6.214;2024-03-08T04:34:27;1.20;99.90
62339;DHT22;48368;53.406;6.214;2024-03-08T04:36:54;1.20;99.90
62339;DHT22;48368;53.406;6.214;2024-03-08T04:39:20;1.20;99.90
62339;DHT22;48368;53.406;6.214;2024-03-08T04:41:47;1.20;99.90
62339;DHT22;48368;53.406;6.214;2024-03-08T04:44:12;1.20;99.90
62339;DHT22;48368;53.406;6.214;2024-03-08T04:46:38;1.20;99.90
62339;DHT22;48368;53.406;6.214;2024-03-08T04:49:04;1.20;99.90
62339;DHT22;48368;53.406;6.214;2024-03-08T04:51:33;1.20;99.90
62339;DHT22;48368;53.406;6.214;2024-03-08T04:53:59;1.10;99.90
62339;DHT22;48368;53.406;6.214;2024-03-08T04:56:25;1.20;99.90
62339;DHT22;48368;53.406;6.214;2024-03-08T04:58:51;1.10;99.90
62339;DHT22;48368;53.406;6.214;2024-03-08T05:01:16;1.20;99.90
62339;DHT22;48368;53.406;6.214;2024-03-08T05:03:42;1.10;99.90
62339;DHT22;48368;53.406;6.214;2024-03-08T05:06:08;1.10;99.90
62339;DHT22;48368;53.406;6.214;2024-03-08T05:08:34;1.10;99.90
62339;DHT22;48368;53.406;6.214;2024-03-08T05:11:00;1.10;99.90
62339;DHT22;48368;53.406;6.214;2024-03-08T05:13:31;1.10;99.90
62339;DHT22;48368;53.406;6.214;2024-03-08T05:15:57;1.10;99.90
62339;DHT22;48368;53.406;6.214;2024-03-08T05:18:24;1.10;99.90
62339;DHT22;48368;53.406;6.214;2024-03-08T05:20:50;1.10;99.90
62339;DHT22;48368;53.406;6.214;2024-03-08T05:23:17;1.10;99.90
62339;DHT22;48368;53.406;6.214;2024-03-08T05:25:45;1.10;99.90
62339;DHT22;48368;53.406;6.214;2024-03-08T05:28:14;1.10;99.90
62339;DHT22;48368;53.406;6.214;2024-03-08T05:30:43;1.10;99.90
62339;DHT22;48368;53.406;6.214;2024-03-08T05:33:08;1.10;99.90
62339;DHT22;48368;53.406;6.214;2024-03-08T05:35:39;1.10;99.90
62339;DHT22;48368;53.406;6.214;2024-03-08T05:38:06;1.00;99.90
62339;DHT22;48368;53.406;6.214;2024-03-08T05:40:34;1.00;99.90
62339;DHT22;48368;53.406;6.214;2024-03-08T05:42:59;1.00;99.90
62339;DHT22;48368;53.406;6.214;2024-03-08T05:45:25;0.90;99.90
62339;DHT22;48368;53.406;6.214;2024-03-08T05:47:52;1.00;99.90
62339;DHT22;48368;53.406;6.214;2024-03-08T05:50:18;0.90;99.90
62339;DHT22;48368;53.406;6.214;2024-03-08T05:52:44;0.90;99.90
62339;DHT22;48368;53.406;6.214;2024-03-08T05:55:09;1.00;99.90
62339;DHT22;48368;53.406;6.214;2024-03-08T05:57:35;0.90;99.90
62339;DHT22;48368;53.406;6.214;2024-03-08T06:00:05;0.90;99.90
62339;DHT22;48368;53.406;6.214;2024-03-08T06:02:31;0.90;99.90
62339;DHT22;48368;53.406;6.214;2024-03-08T06:04:57;0.90;99.90
62339;DHT22;48368;53.406;6.214;2024-03-08T06:07:22;0.90;99.90
62339;DHT22;48368;53.406;6.214;2024-03-08T06:09:48;0.90;99.90
62339;DHT22;48368;53.406;6.214;2024-03-08T06:12:14;0.90;99.90
62339;DHT22;48368;53.406;6.214;2024-03-08T06:14:47;0.90;99.90
62339;DHT22;48368;53.406;6.214;2024-03-08T06:17:12;0.80;99.90
62339;DHT22;48368;53.406;6.214;2024-03-08T06:19:38;0.80;99.90
62339;DHT22;48368;53.406;6.214;2024-03-08T06:22:04;0.90;99.90
62339;DHT22;48368;53.406;6.214;2024-03-08T06:24:34;0.80;99.90
62339;DHT22;48368;53.406;6.214;2024-03-08T06:27:02;0.80;99.90
62339;DHT22;48368;53.406;6.214;2024-03-08T06:29:27;0.80;99.90
62339;DHT22;48368;53.406;6.214;2024-03-08T06:31:53;0.80;99.90
62339;DHT22;48368;53.406;6.214;2024-03-08T06:34:19;0.90;99.90
62339;DHT22;48368;53.406;6.214;2024-03-08T06:36:46;0.90;99.90
62339;DHT22;48368;53.406;6.214;2024-03-08T06:39:12;0.90;99.90
62339;DHT22;48368;53.406;6.214;2024-03-08T06:41:41;0.90;99.90
62339;DHT22;48368;53.406;6.214;2024-03-08T06:44:06;1.00;99.90
62339;DHT22;48368;53.406;6.214;2024-03-08T06:46:33;1.00;99.90
62339;DHT22;48368;53.406;6.214;2024-03-08T06:48:59;1.00;99.90
62339;DHT22;48368;53.406;6.214;2024-03-08T06:51:25;1.00;99.90
62339;DHT22;48368;53.406;6.214;2024-03-08T06:53:50;1.10;99.90
62339;DHT22;48368;53.406;6.214;2024-03-08T06:56:20;1.10;99.90
62339;DHT22;48368;53.406;6.214;2024-03-08T06:58:46;1.20;99.90
62339;DHT22;48368;53.406;6.214;2024-03-08T07:01:13;1.20;99.90
62339;DHT22;48368;53.406;6.214;2024-03-08T07:03:41;1.30;99.90
62339;DHT22;48368;53.406;6.214;2024-03-08T07:06:10;1.30;99.90
62339;DHT22;48368;53.406;6.214;2024-03-08T07:08:36;1.40;99.90
62339;DHT22;48368;53.406;6.214;2024-03-08T07:11:02;1.40;99.90
62339;DHT22;48368;53.406;6.214;2024-03-08T07:13:29;1.40;99.90
62339;DHT22;48368;53.406;6.214;2024-03-08T07:15:55;1.50;99.90
62339;DHT22;48368;53.406;6.214;2024-03-08T07:18:20;1.50;99.90
62339;DHT22;48368;53.406;6.214;2024-03-08T07:20:47;1.60;99.90
62339;DHT22;48368;53.406;6.214;2024-03-08T07:23:14;1.60;99.90
62339;DHT22;48368;53.406;6.214;2024-03-08T07:26:00;1.70;99.90
62339;DHT22;48368;53.406;6.214;2024-03-08T07:28:26;1.70;99.90
62339;DHT22;48368;53.406;6.214;2024-03-08T07:30:53;1.80;99.90
62339;DHT22;48368;53.406;6.214;2024-03-08T07:33:27;1.80;99.90
62339;DHT22;48368;53.406;6.214;2024-03-08T07:35:52;1.90;99.90
62339;DHT22;48368;53.406;6.214;2024-03-08T07:38:18;2.00;99.90
62339;DHT22;48368;53.406;6.214;2024-03-08T07:40:46;2.00;99.90
62339;DHT22;48368;53.406;6.214;2024-03-08T07:43:13;2.10;99.90
62339;DHT22;48368;53.406;6.214;2024-03-08T07:45:39;2.20;99.90
62339;DHT22;48368;53.406;6.214;2024-03-08T07:48:06;2.30;99.90
62339;DHT22;48368;53.406;6.214;2024-03-08T07:50:38;2.30;99.90
62339;DHT22;48368;53.406;6.214;2024-03-08T07:53:04;2.30;99.90
62339;DHT22;48368;53.406;6.214;2024-03-08T07:55:32;2.50;99.90
62339;DHT22;48368;53.406;6.214;2024-03-08T07:57:58;2.50;99.90
62339;DHT22;48368;53.406;6.214;2024-03-08T08:00:25;2.60;99.90
62339;DHT22;48368;53.406;6.214;2024-03-08T08:02:53;2.70;99.90
62339;DHT22;48368;53.406;6.214;2024-03-08T08:05:19;2.70;99.90
62339;DHT22;48368;53.406;6.214;2024-03-08T08:07:45;2.80;99.90
62339;DHT22;48368;53.406;6.214;2024-03-08T08:10:15;2.90;99.90
62339;DHT22;48368;53.406;6.214;2024-03-08T08:12:50;3.00;99.90
62339;DHT22;48368;53.406;6.214;2024-03-08T08:15:19;3.00;99.90
62339;DHT22;48368;53.406;6.214;2024-03-08T08:17:45;3.10;99.90
62339;DHT22;48368;53.406;6.214;2024-03-08T08:20:11;3.10;99.90
62339;DHT22;48368;53.406;6.214;2024-03-08T08:22:39;3.20;99.90
62339;DHT22;48368;53.406;6.214;2024-03-08T08:25:08;3.20;99.90
62339;DHT22;48368;53.406;6.214;2024-03-08T08:27:34;3.30;99.90
62339;DHT22;48368;53.406;6.214;2024-03-08T08:30:02;3.30;99.90
62339;DHT22;48368;53.406;6.214;2024-03-08T08:32:34;3.40;99.90
62339;DHT22;48368;53.406;6.214;2024-03-08T08:35:03;3.50;99.90
62339;DHT22;48368;53.406;6.214;2024-03-08T08:37:31;3.50;99.90
62339;DHT22;48368;53.406;6.214;2024-03-08T08:39:57;3.60;99.90
62339;DHT22;48368;53.406;6.214;2024-03-08T08:42:23;3.70;99.90
62339;DHT22;48368;53.406;6.214;2024-03-08T08:44:49;3.80;99.90
62339;DHT22;48368;53.406;6.214;2024-03-08T08:47:16;3.90;99.90
62339;DHT22;48368;53.406;6.214;2024-03-08T08:49:44;4.00;99.90
62339;DHT22;48368;53.406;6.214;2024-03-08T08:52:12;4.10;99.90
62339;DHT22;48368;53.406;6.214;2024-03-08T08:54:38;4.10;99.90
62339;DHT22;48368;53.406;6.214;2024-03-08T08:57:04;4.20;99.90
62339;DHT22;48368;53.406;6.214;2024-03-08T08:59:36;4.30;99.90
62339;DHT22;48368;53.406;6.214;2024-03-08T09:02:08;4.40;99.90
62339;DHT22;48368;53.406;6.214;2024-03-08T09:04:37;4.30;99.90
62339;DHT22;48368;53.406;6.214;2024-03-08T09:07:02;4.40;99.90
62339;DHT22;48368;53.406;6.214;2024-03-08T09:09:32;4.50;99.90
62339;DHT22;48368;53.406;6.214;2024-03-08T09:11:58;4.50;99.90
62339;DHT22;48368;53.406;6.214;2024-03-08T09:14:23;4.60;99.90
62339;DHT22;48368;53.406;6.214;2024-03-08T09:16:51;4.70;99.90
62339;DHT22;48368;53.406;6.214;2024-03-08T09:19:17;4.80;99.90
62339;DHT22;48368;53.406;6.214;2024-03-08T09:21:45;4.90;99.90
62339;DHT22;48368;53.406;6.214;2024-03-08T09:24:10;5.00;99.90
62339;DHT22;48368;53.406;6.214;2024-03-08T09:26:36;5.10;99.90
62339;DHT22;48368;53.406;6.214;2024-03-08T09:29:02;5.00;99.90
62339;DHT22;48368;53.406;6.214;2024-03-08T09:31:28;5.10;99.90
62339;DHT22;48368;53.406;6.214;2024-03-08T09:33:54;5.10;99.90
62339;DHT22;48368;53.406;6.214;2024-03-08T09:36:20;5.10;99.90
62339;DHT22;48368;53.406;6.214;2024-03-08T09:38:46;5.20;99.90
62339;DHT22;48368;53.406;6.214;2024-03-08T09:41:15;5.20;99.90
62339;DHT22;48368;53.406;6.214;2024-03-08T09:43:41;5.30;99.90
62339;DHT22;48368;53.406;6.214;2024-03-08T09:46:07;5.40;99.90
62339;DHT22;48368;53.406;6.214;2024-03-08T09:48:36;5.40;99.90
62339;DHT22;48368;53.406;6.214;2024-03-08T09:51:03;5.40;99.90
62339;DHT22;48368;53.406;6.214;2024-03-08T09:53:30;5.60;99.90
62339;DHT22;48368;53.406;6.214;2024-03-08T09:55:56;5.50;99.90
62339;DHT22;48368;53.406;6.214;2024-03-08T09:58:22;5.50;99.90
62339;DHT22;48368;53.406;6.214;2024-03-08T10:01:03;5.60;99.90
62339;DHT22;48368;53.406;6.214;2024-03-08T10:03:30;5.60;99.90
62339;DHT22;48368;53.406;6.214;2024-03-08T10:05:58;5.60;99.90
62339;DHT22;48368;53.406;6.214;2024-03-08T10:08:29;5.60;99.90
62339;DHT22;48368;53.406;6.214;2024-03-08T10:10:56;5.80;99.90
62339;DHT22;48368;53.406;6.214;2024-03-08T10:13:25;5.70;99.90
62339;DHT22;48368;53.406;6.214;2024-03-08T10:15:52;5.60;99.90
62339;DHT22;48368;53.406;6.214;2024-03-08T10:18:21;5.60;99.90
62339;DHT22;48368;53.406;6.214;2024-03-08T10:21:08;5.80;99.90
62339;DHT22;48368;53.406;6.214;2024-03-08T10:23:36;5.90;99.90
62339;DHT22;48368;53.406;6.214;2024-03-08T10:26:18;5.80;99.90
62339;DHT22;48368;53.406;6.214;2024-03-08T10:28:47;5.80;99.90
62339;DHT22;48368;53.406;6.214;2024-03-08T10:31:20;6.00;99.90
62339;DHT22;48368;53.406;6.214;2024-03-08T10:33:48;6.10;99.90
62339;DHT22;48368;53.406;6.214;2024-03-08T10:36:15;6.10;99.90
62339;DHT22;48368;53.406;6.214;2024-03-08T10:38:42;6.10;99.90
62339;DHT22;48368;53.406;6.214;2024-03-08T10:41:12;6.20;99.90
62339;DHT22;48368;53.406;6.214;2024-03-08T10:49:17;6.30;99.90
62339;DHT22;48368;53.406;6.214;2024-03-08T10:51:49;6.40;99.90
62339;DHT22;48368;53.406;6.214;2024-03-08T10:54:19;6.40;99.90
62339;DHT22;48368;53.406;6.214;2024-03-08T10:56:48;6.50;99.90
62339;DHT22;48368;53.406;6.214;2024-03-08T10:59:14;6.60;99.90
62339;DHT22;48368;53.406;6.214;2024-03-08T11:01:40;6.70;99.90
62339;DHT22;48368;53.406;6.214;2024-03-08T11:04:06;6.60;99.90
62339;DHT22;48368;53.406;6.214;2024-03-08T11:09:11;6.60;99.90
62339;DHT22;48368;53.406;6.214;2024-03-08T11:11:52;6.60;99.90
62339;DHT22;48368;53.406;6.214;2024-03-08T11:14:44;6.80;99.90
62339;DHT22;48368;53.406;6.214;2024-03-08T11:17:10;6.90;99.90
62339;DHT22;48368;53.406;6.214;2024-03-08T11:19:35;7.10;99.90
62339;DHT22;48368;53.406;6.214;2024-03-08T11:22:02;7.20;99.90
62339;DHT22;48368;53.406;6.214;2024-03-08T11:24:36;7.00;99.90
62339;DHT22;48368;53.406;6.214;2024-03-08T11:27:03;7.10;99.90
62339;DHT22;48368;53.406;6.214;2024-03-08T11:32:08;7.10;99.90
62339;DHT22;48368;53.406;6.214;2024-03-08T11:34:39;7.20;99.90
62339;DHT22;48368;53.406;6.214;2024-03-08T11:37:16;7.20;99.90
62339;DHT22;48368;53.406;6.214;2024-03-08T11:39:47;7.10;99.90
62339;DHT22;48368;53.406;6.214;2024-03-08T11:42:17;7.30;99.90
62339;DHT22;48368;53.406;6.214;2024-03-08T11:44:47;7.40;99.90
62339;DHT22;48368;53.406;6.214;2024-03-08T11:47:13;7.40;99.90
62339;DHT22;48368;53.406;6.214;2024-03-08T11:49:40;7.60;99.90
62339;DHT22;48368;53.406;6.214;2024-03-08T11:52:15;7.60;99.90
62339;DHT22;48368;53.406;6.214;2024-03-08T11:54:41;7.70;99.90
62339;DHT22;48368;53.406;6.214;2024-03-08T11:57:08;7.70;99.90
62339;DHT22;48368;53.406;6.214;2024-03-08T11:59:53;7.90;99.90
62339;DHT22;48368;53.406;6.214;2024-03-08T12:02:18;7.90;99.90
62339;DHT22;48368;53.406;6.214;2024-03-08T12:04:47;8.00;99.90
62339;DHT22;48368;53.406;6.214;2024-03-08T12:07:13;8.00;99.90
62339;DHT22;48368;53.406;6.214;2024-03-08T12:09:42;7.90;99.90
62339;DHT22;48368;53.406;6.214;2024-03-08T12:12:12;7.80;99.90
62339;DHT22;48368;53.406;6.214;2024-03-08T12:14:38;7.80;99.90
62339;DHT22;48368;53.406;6.214;2024-03-08T12:17:04;7.90;99.90
62339;DHT22;48368;53.406;6.214;2024-03-08T12:19:31;8.00;99.90
62339;DHT22;48368;53.406;6.214;2024-03-08T12:22:07;8.20;99.90
62339;DHT22;48368;53.406;6.214;2024-03-08T12:24:35;8.20;99.90
62339;DHT22;48368;53.406;6.214;2024-03-08T12:27:17;8.20;99.90
62339;DHT22;48368;53.406;6.214;2024-03-08T12:29:43;8.30;99.90
62339;DHT22;48368;53.406;6.214;2024-03-08T12:32:09;8.40;99.90
62339;DHT22;48368;53.406;6.214;2024-03-08T12:34:43;8.20;99.90
62339;DHT22;48368;53.406;6.214;2024-03-08T12:37:12;8.20;99.90
62339;DHT22;48368;53.406;6.214;2024-03-08T12:39:40;8.30;99.90
62339;DHT22;48368;53.406;6.214;2024-03-08T12:42:07;8.40;99.90
62339;DHT22;48368;53.406;6.214;2024-03-08T12:44:33;8.40;99.90
62339;DHT22;48368;53.406;6.214;2024-03-08T12:46:58;8.40;99.90
62339;DHT22;48368;53.406;6.214;2024-03-08T12:49:24;8.40;99.90
62339;DHT22;48368;53.406;6.214;2024-03-08T12:51:50;8.30;99.90
62339;DHT22;48368;53.406;6.214;2024-03-08T12:54:17;8.40;99.90
62339;DHT22;48368;53.406;6.214;2024-03-08T12:56:55;8.40;99.90
62339;DHT22;48368;53.406;6.214;2024-03-08T12:59:23;8.40;99.90
62339;DHT22;48368;53.406;6.214;2024-03-08T13:01:49;8.30;99.90
62339;DHT22;48368;53.406;6.214;2024-03-08T13:04:16;8.20;99.90
62339;DHT22;48368;53.406;6.214;2024-03-08T13:06:44;8.30;99.90
62339;DHT22;48368;53.406;6.214;2024-03-08T13:09:12;8.30;99.90
62339;DHT22;48368;53.406;6.214;2024-03-08T13:11:37;8.40;99.90
62339;DHT22;48368;53.406;6.214;2024-03-08T13:14:04;8.50;99.90
62339;DHT22;48368;53.406;6.214;2024-03-08T13:16:30;8.50;99.90
62339;DHT22;48368;53.406;6.214;2024-03-08T13:18:57;8.60;99.90
62339;DHT22;48368;53.406;6.214;2024-03-08T13:21:23;8.70;99.90
62339;DHT22;48368;53.406;6.214;2024-03-08T13:23:52;8.70;99.90
62339;DHT22;48368;53.406;6.214;2024-03-08T13:26:18;8.70;99.90
62339;DHT22;48368;53.406;6.214;2024-03-08T13:28:49;8.60;99.90
62339;DHT22;48368;53.406;6.214;2024-03-08T13:31:22;8.80;99.90
62339;DHT22;48368;53.406;6.214;2024-03-08T13:33:50;8.50;99.90
62339;DHT22;48368;53.406;6.214;2024-03-08T13:36:23;8.70;99.90
62339;DHT22;48368;53.406;6.214;2024-03-08T13:38:50;8.80;99.90
62339;DHT22;48368;53.406;6.214;2024-03-08T13:41:16;8.90;99.90
62339;DHT22;48368;53.406;6.214;2024-03-08T13:43:43;8.80;99.90
62339;DHT22;48368;53.406;6.214;2024-03-08T13:46:10;8.70;99.90
62339;DHT22;48368;53.406;6.214;2024-03-08T13:48:36;8.60;99.90
62339;DHT22;48368;53.406;6.214;2024-03-08T13:51:07;8.60;99.90
62339;DHT22;48368;53.406;6.214;2024-03-08T13:53:33;8.60;99.90
62339;DHT22;48368;53.406;6.214;2024-03-08T13:56:02;8.60;99.90
62339;DHT22;48368;53.406;6.214;2024-03-08T13:58:28;8.60;99.90
62339;DHT22;48368;53.406;6.214;2024-03-08T14:00:54;8.70;99.90
62339;DHT22;48368;53.406;6.214;2024-03-08T14:03:21;8.60;99.90
62339;DHT22;48368;53.406;6.214;2024-03-08T14:05:52;8.70;99.90
62339;DHT22;48368;53.406;6.214;2024-03-08T14:08:23;8.70;99.90
62339;DHT22;48368;53.406;6.214;2024-03-08T14:10:52;8.60;99.90
62339;DHT22;48368;53.406;6.214;2024-03-08T14:13:19;8.60;99.90
62339;DHT22;48368;53.406;6.214;2024-03-08T14:15:45;8.60;99.90
62339;DHT22;48368;53.406;6.214;2024-03-08T14:18:11;8.60;99.90
62339;DHT22;48368;53.406;6.214;2024-03-08T14:20:38;8.50;99.90
62339;DHT22;48368;53.406;6.214;2024-03-08T14:23:04;8.50;99.90
62339;DHT22;48368;53.406;6.214;2024-03-08T14:25:36;8.50;99.90
62339;DHT22;48368;53.406;6.214;2024-03-08T14:28:02;8.50;99.90
62339;DHT22;48368;53.406;6.214;2024-03-08T14:30:32;8.40;99.90
62339;DHT22;48368;53.406;6.214;2024-03-08T14:33:02;8.40;99.90
62339;DHT22;48368;53.406;6.214;2024-03-08T14:35:28;8.50;99.90
62339;DHT22;48368;53.406;6.214;2024-03-08T14:37:55;8.50;99.90
62339;DHT22;48368;53.406;6.214;2024-03-08T14:40:23;8.50;99.90
62339;DHT22;48368;53.406;6.214;2024-03-08T14:42:49;8.50;99.90
62339;DHT22;48368;53.406;6.214;2024-03-08T14:45:16;8.40;99.90
62339;DHT22;48368;53.406;6.214;2024-03-08T14:47:42;8.40;99.90
62339;DHT22;48368;53.406;6.214;2024-03-08T14:50:09;8.40;99.90
62339;DHT22;48368;53.406;6.214;2024-03-08T14:52:37;8.40;99.90
62339;DHT22;48368;53.406;6.214;2024-03-08T14:55:05;8.30;99.90
62339;DHT22;48368;53.406;6.214;2024-03-08T14:57:32;8.20;99.90
62339;DHT22;48368;53.406;6.214;2024-03-08T14:59:58;8.20;99.90
62339;DHT22;48368;53.406;6.214;2024-03-08T15:02:31;8.20;99.90
62339;DHT22;48368;53.406;6.214;2024-03-08T15:04:57;8.20;99.90
62339;DHT22;48368;53.406;6.214;2024-03-08T15:07:26;8.20;99.90
62339;DHT22;48368;53.406;6.214;2024-03-08T15:09:51;8.20;99.90
62339;DHT22;48368;53.406;6.214;2024-03-08T15:12:19;8.30;99.90
62339;DHT22;48368;53.406;6.214;2024-03-08T15:14:46;8.20;99.90
62339;DHT22;48368;53.406;6.214;2024-03-08T15:17:11;8.20;99.90
62339;DHT22;48368;53.406;6.214;2024-03-08T15:19:49;8.10;99.90
62339;DHT22;48368;53.406;6.214;2024-03-08T15:22:15;8.10;99.90
62339;DHT22;48368;53.406;6.214;2024-03-08T15:24:46;8.00;99.90
62339;DHT22;48368;53.406;6.214;2024-03-08T15:27:11;8.00;99.90
62339;DHT22;48368;53.406;6.214;2024-03-08T15:29:38;8.00;99.90
62339;DHT22;48368;53.406;6.214;2024-03-08T15:32:04;7.90;99.90
62339;DHT22;48368;53.406;6.214;2024-03-08T15:34:31;7.90;99.90
62339;DHT22;48368;53.406;6.214;2024-03-08T15:37:00;7.90;99.90
62339;DHT22;48368;53.406;6.214;2024-03-08T15:39:29;7.80;99.90
62339;DHT22;48368;53.406;6.214;2024-03-08T15:41:58;7.80;99.90
62339;DHT22;48368;53.406;6.214;2024-03-08T15:44:25;7.80;99.90
62339;DHT22;48368;53.406;6.214;2024-03-08T15:46:52;7.80;99.90
62339;DHT22;48368;53.406;6.214;2024-03-08T15:49:18;7.80;99.90
62339;DHT22;48368;53.406;6.214;2024-03-08T15:51:46;7.70;99.90
62339;DHT22;48368;53.406;6.214;2024-03-08T15:54:11;7.70;99.90
62339;DHT22;48368;53.406;6.214;2024-03-08T15:56:37;7.60;99.90
62339;DHT22;48368;53.406;6.214;2024-03-08T15:59:03;7.60;99.90